Time;durP1;ratioP1;P1;durP2;ratioP2;P2;SDS_P1;SDS_P2;PMS_P1;PMS_P2;Temp;Humidity;BMP_temperature;BMP_pressure;BME280_temperature;BME280_humidity;BME280_pressure;Samples;Min_cycle;Max_cycle;Signal;HPM_P1;HPM_P2
2022/02/25 00:00:13;;;;;;;;;2.50;2.00;;;;;7.92;52.04;102219.31;2393006;28;46512;-82
2022/02/25 00:01:23;;;;;;;;;3.00;1.50;;;;;7.90;51.55;102214.09;2393555;28;45307;-82
2022/02/25 00:02:33;;;;;;;;;22.25;15.50;;;;;7.88;51.83;102216.69;2393707;28;46501;-81
2022/02/25 00:03:44;;;;;;;;;2.00;1.50;;;;;7.88;51.55;102215.78;2393694;28;46481;-80
2022/02/25 00:04:54;;;;;;;;;1.00;1.00;;;;;7.84;51.93;102208.81;2393559;28;45355;-79
2022/02/25 00:06:04;;;;;;;;;3.75;2.50;;;;;7.82;51.63;102211.44;2393633;28;45164;-79
2022/02/25 00:07:15;;;;;;;;;92.50;72.50;;;;;7.85;52.17;102215.81;2392329;28;46007;-80
2022/02/25 00:08:25;;;;;;;;;51.75;38.75;;;;;7.82;52.16;102219.28;2393193;28;45261;-80
2022/02/25 00:09:35;;;;;;;;;16.50;14.25;;;;;7.84;52.46;102224.53;2393571;28;45214;-79
2022/02/25 00:10:46;;;;;;;;;14.00;10.25;;;;;7.82;52.01;102221.91;2393352;28;45264;-79
2022/02/25 00:11:56;;;;;;;;;2.00;2.00;;;;;7.80;52.69;102223.66;2393797;28;45221;-79
2022/02/25 00:13:07;;;;;;;;;52.25;40.25;;;;;7.79;52.01;102229.75;2399776;28;45412;-79
2022/02/25 00:14:17;;;;;;;;;65.75;50.50;;;;;7.79;52.24;102229.75;2393473;28;46100;-79
2022/02/25 00:15:27;;;;;;;;;79.00;62.50;;;;;7.76;52.52;102237.59;2393418;28;44718;-79
2022/02/25 00:16:38;;;;;;;;;27.00;20.50;;;;;7.76;52.61;102242.81;2393156;28;45461;-79
2022/02/25 00:17:48;;;;;;;;;4.25;4.00;;;;;7.78;52.26;102235.00;2393714;28;45157;-80
2022/02/25 00:18:58;;;;;;;;;25.75;20.00;;;;;7.77;52.58;102244.56;2392535;28;47169;-78
2022/02/25 00:20:11;;;;;;;;;13.50;12.00;;;;;7.77;52.46;102241.97;2392948;28;45279;-78
2022/02/25 00:21:22;;;;;;;;;4.75;2.75;;;;;7.76;52.33;102237.59;2393186;28;45535;-78
2022/02/25 00:22:32;;;;;;;;;5.00;4.75;;;;;7.73;52.41;102237.59;2398920;28;45478;-78
2022/02/25 00:23:42;;;;;;;;;8.25;7.50;;;;;7.76;52.63;102237.59;2396737;28;45454;-78
2022/02/25 00:24:53;;;;;;;;;9.00;3.25;;;;;7.72;52.85;102234.09;2393328;28;45232;-77
2022/02/25 00:26:03;;;;;;;;;3.50;2.00;;;;;7.72;52.91;102236.72;2393238;28;45382;-78
2022/02/25 00:27:13;;;;;;;;;14.75;9.00;;;;;7.70;52.82;102230.59;2393504;28;45268;-78
2022/02/25 00:28:24;;;;;;;;;18.00;13.75;;;;;7.73;52.96;102240.22;2392548;28;48548;-77
2022/02/25 00:29:34;;;;;;;;;8.50;6.00;;;;;7.72;52.71;102247.19;2390049;28;45235;-78
2022/02/25 00:30:45;;;;;;;;;3.00;2.25;;;;;7.75;53.25;102246.31;2393678;28;45333;-78
2022/02/25 00:31:55;;;;;;;;;3.00;2.00;;;;;7.71;52.61;102241.91;2393583;28;45209;-78
2022/02/25 00:33:06;;;;;;;;;6.25;4.50;;;;;7.71;53.33;102239.31;2401033;28;45275;-78
2022/02/25 00:34:16;;;;;;;;;4.75;3.00;;;;;7.72;52.88;102247.19;2393641;28;45174;-78
2022/02/25 00:35:26;;;;;;;;;7.75;7.50;;;;;7.69;52.95;102247.16;2392890;28;45361;-78
2022/02/25 00:36:37;;;;;;;;;10.25;8.50;;;;;7.71;53.30;102250.66;2393456;28;45445;-78
2022/02/25 00:37:48;;;;;;;;;6.50;4.50;;;;;7.68;53.12;102257.63;2393404;28;46347;-78
2022/02/25 00:38:58;;;;;;;;;5.00;3.50;;;;;7.63;53.35;102253.25;2393379;28;44664;-78
2022/02/25 00:40:09;;;;;;;;;5.50;3.50;;;;;7.64;53.14;102257.63;2393209;28;46316;-78
2022/02/25 00:41:20;;;;;;;;;2.25;2.00;;;;;7.60;53.42;102262.84;2401404;28;44843;-79
2022/02/25 00:42:30;;;;;;;;;4.00;1.50;;;;;7.63;53.58;102257.63;2392573;28;48357;-79
2022/02/25 00:43:40;;;;;;;;;1.00;1.00;;;;;7.62;53.52;102259.38;2392398;28;45357;-78
2022/02/25 00:44:51;;;;;;;;;2.25;1.25;;;;;7.62;53.26;102261.97;2392706;28;46339;-78
2022/02/25 00:46:02;;;;;;;;;2.00;1.00;;;;;7.62;53.52;102267.22;2402618;28;44710;-83
2022/02/25 00:47:12;;;;;;;;;4.25;2.50;;;;;7.60;53.23;102263.72;2396633;28;45304;-83
2022/02/25 00:48:23;;;;;;;;;4.75;1.75;;;;;7.61;53.40;102270.69;2395041;28;45510;-82
2022/02/25 00:49:33;;;;;;;;;3.25;2.00;;;;;7.61;53.11;102273.31;2395014;28;45236;-83
2022/02/25 00:50:44;;;;;;;;;1.50;1.00;;;;;7.62;53.47;102280.28;2394923;28;45235;-83
2022/02/25 00:51:54;;;;;;;;;3.75;0.00;;;;;7.58;53.25;102275.03;2396369;28;45377;-82
2022/02/25 00:53:05;;;;;;;;;2.75;2.50;;;;;7.59;52.92;102277.66;2403490;28;45159;-83
2022/02/25 00:54:15;;;;;;;;;3.00;1.25;;;;;7.59;53.30;102275.03;2394611;28;45321;-82
2022/02/25 00:55:25;;;;;;;;;3.25;1.00;;;;;7.58;52.92;102272.44;2395035;28;45227;-83
2022/02/25 00:56:37;;;;;;;;;4.75;1.75;;;;;7.59;53.70;102276.78;2394585;28;45486;-83
2022/02/25 00:57:49;;;;;;;;;1.00;1.00;;;;;7.58;53.46;102280.28;2396153;28;45223;-83
2022/02/25 00:58:59;;;;;;;;;4.00;2.00;;;;;7.61;53.53;102286.38;2395746;28;46699;-83
2022/02/25 01:00:10;;;;;;;;;2.75;2.25;;;;;7.60;53.28;102284.66;2394923;28;45468;-83
2022/02/25 01:01:21;;;;;;;;;5.50;1.25;;;;;7.60;53.43;102284.66;2394691;28;45362;-81
2022/02/25 01:02:31;;;;;;;;;6.00;3.00;;;;;7.64;53.74;102290.75;2395028;28;45221;-81
2022/02/25 01:03:41;;;;;;;;;2.00;2.00;;;;;7.62;53.85;102288.16;2393901;28;46530;-81
2022/02/25 01:04:52;;;;;;;;;2.25;0.50;;;;;7.64;53.66;102283.78;2394385;28;44757;-81
2022/02/25 01:06:02;;;;;;;;;3.00;2.00;;;;;7.62;53.76;102293.38;2394604;28;45310;-81
2022/02/25 01:07:13;;;;;;;;;3.00;1.00;;;;;7.62;54.01;102288.16;2394220;28;45291;-79
2022/02/25 01:08:25;;;;;;;;;2.00;0.50;;;;;7.64;53.55;102286.41;2394457;28;45251;-79
2022/02/25 01:09:35;;;;;;;;;2.00;2.00;;;;;7.64;53.62;102291.63;2400874;28;45261;-79
2022/02/25 01:10:46;;;;;;;;;1.25;0.00;;;;;7.64;53.79;102285.53;2398001;28;46304;-79
2022/02/25 01:11:56;;;;;;;;;4.50;1.75;;;;;7.64;53.82;102286.41;2394743;28;45238;-78
2022/02/25 01:13:07;;;;;;;;;2.50;1.75;;;;;7.61;53.68;102286.38;2394640;28;45312;-78
2022/02/25 01:14:18;;;;;;;;;1.00;1.00;;;;;7.61;53.08;102286.38;2394659;28;45394;-78
2022/02/25 01:15:29;;;;;;;;;3.00;1.00;;;;;7.62;54.04;102284.66;2394833;28;45471;-78
2022/02/25 01:16:39;;;;;;;;;2.00;2.00;;;;;7.58;53.89;102286.34;2395048;28;45420;-81
2022/02/25 01:17:49;;;;;;;;;3.00;2.00;;;;;7.56;53.31;102293.34;2394671;28;46204;-80
2022/02/25 01:19:00;;;;;;;;;3.25;3.00;;;;;7.53;53.09;102283.72;2394989;28;45309;-80
2022/02/25 01:20:11;;;;;;;;;5.25;1.25;;;;;7.51;53.33;102287.19;2403443;28;45423;-86
2022/02/25 01:21:21;;;;;;;;;2.75;2.00;;;;;7.49;53.51;102289.81;2394884;28;45317;-83
2022/02/25 01:22:32;;;;;;;;;1.25;1.25;;;;;7.49;53.65;102291.56;2394673;28;46310;-83
2022/02/25 01:23:43;;;;;;;;;1.25;1.25;;;;;7.49;54.12;102295.06;2394434;28;44729;-83
2022/02/25 01:24:53;;;;;;;;;1.75;1.75;;;;;7.48;53.62;102301.13;2393997;28;47416;-83
2022/02/25 01:26:03;;;;;;;;;3.75;2.00;;;;;7.50;54.07;102306.41;2393936;28;45299;-83
2022/02/25 01:27:14;;;;;;;;;4.00;2.00;;;;;7.49;53.70;102300.28;2388497;28;45573;-83
2022/02/25 01:28:24;;;;;;;;;4.00;1.00;;;;;7.49;54.25;102304.63;2402709;28;45258;-83
2022/02/25 01:29:36;;;;;;;;;1.50;1.50;;;;;7.52;53.99;102305.53;2394616;28;46705;-83
2022/02/25 01:30:46;;;;;;;;;5.25;2.00;;;;;7.51;54.02;102302.91;2394821;28;45454;-83
2022/02/25 01:31:56;;;;;;;;;2.25;1.00;;;;;7.52;54.02;102302.03;2394555;28;46316;-83
2022/02/25 01:33:07;;;;;;;;;2.00;1.00;;;;;7.51;54.29;102306.41;2394999;28;44709;-83
2022/02/25 01:34:18;;;;;;;;;2.00;2.00;;;;;7.50;54.39;102303.78;2394565;28;45576;-83
2022/02/25 01:35:28;;;;;;;;;1.00;1.00;;;;;7.50;54.00;102301.16;2394667;28;45392;-84
2022/02/25 01:36:38;;;;;;;;;5.25;2.75;;;;;7.50;54.07;102299.44;2395315;28;45501;-84
2022/02/25 01:37:49;;;;;;;;;2.00;1.00;;;;;7.51;53.91;102303.78;2394756;28;45278;-81
2022/02/25 01:39:02;;;;;;;;;0.75;0.75;;;;;7.51;53.96;102300.28;2394611;28;45369;-80
2022/02/25 01:40:12;;;;;;;;;3.25;1.00;;;;;7.51;54.28;102295.94;2394730;28;45423;-80
2022/02/25 01:41:23;;;;;;;;;2.25;1.50;;;;;7.50;53.98;102303.78;2394125;28;46403;-80
2022/02/25 01:42:47;;;;;;;;;3.50;3.00;;;;;7.50;53.97;102299.44;2394722;28;44549;-80
2022/02/25 01:44:13;;;;;;;;;2.00;1.50;;;;;7.52;54.27;102312.50;2394660;28;45715;-80
2022/02/25 01:45:24;;;;;;;;;2.00;1.00;;;;;7.52;54.30;102309.91;2390152;28;45289;-80
2022/02/25 01:46:34;;;;;;;;;3.50;2.00;;;;;7.47;54.35;102303.75;2398008;28;45975;-81
2022/02/25 01:47:46;;;;;;;;;2.75;1.75;;;;;7.49;54.22;102310.75;2399239;28;45239;-81
2022/02/25 01:48:56;;;;;;;;;3.00;1.25;;;;;7.48;54.62;102302.91;2394674;28;45540;-81
2022/02/25 01:50:07;;;;;;;;;2.25;1.00;;;;;7.45;54.28;102311.63;2394356;28;45225;-81
2022/02/25 01:51:17;;;;;;;;;2.00;1.75;;;;;7.44;54.11;102312.47;2394577;28;45512;-81
2022/02/25 01:52:28;;;;;;;;;6.50;1.75;;;;;7.42;53.99;102307.22;2399987;28;45371;-81
2022/02/25 01:53:38;;;;;;;;;2.75;2.00;;;;;7.39;53.92;102307.22;2397132;28;46592;-81
2022/02/25 01:54:49;;;;;;;;;1.75;1.25;;;;;7.38;54.54;102310.69;2394559;28;45238;-81
2022/02/25 01:55:59;;;;;;;;;4.00;1.00;;;;;7.35;54.30;102305.44;2394380;28;46145;-81
2022/02/25 01:57:12;;;;;;;;;3.25;2.00;;;;;7.35;54.11;102299.34;2402465;28;44709;-81
2022/02/25 01:58:24;;;;;;;;;2.75;1.00;;;;;7.35;54.36;102305.44;2395982;28;45515;-81
2022/02/25 01:59:37;;;;;;;;;1.50;1.25;;;;;7.34;53.91;102294.97;2393334;28;45244;-81
2022/02/25 02:00:47;;;;;;;;;1.00;1.00;;;;;7.33;54.41;102301.97;2394392;28;45361;-80
2022/02/25 02:01:58;;;;;;;;;4.50;1.00;;;;;7.36;54.04;102312.41;2400315;28;45447;-81
2022/02/25 02:03:09;;;;;;;;;3.25;1.25;;;;;7.35;54.09;102294.09;2397618;28;45436;-80
2022/02/25 02:04:19;;;;;;;;;1.75;1.00;;;;;7.34;54.59;102306.31;2394513;28;45314;-80
2022/02/25 02:05:30;;;;;;;;;5.50;2.50;;;;;7.32;54.79;102300.19;2394358;28;45362;-80
2022/02/25 02:06:40;;;;;;;;;2.50;1.00;;;;;7.34;54.30;102302.81;2398180;28;44814;-80
2022/02/25 02:07:51;;;;;;;;;3.25;2.25;;;;;7.33;54.54;102304.56;2399345;28;46519;-81
2022/02/25 02:09:03;;;;;;;;;3.25;1.00;;;;;7.31;54.71;102304.53;2394533;28;45352;-81
2022/02/25 02:10:15;;;;;;;;;2.00;2.00;;;;;7.32;54.74;102302.81;2393820;28;46630;-81
2022/02/25 02:11:38;;;;;;;;;2.75;2.00;;;;;7.28;54.42;102304.53;2394270;28;45211;-80
2022/02/25 02:12:49;;;;;;;;;6.00;2.00;;;;;7.31;54.54;102303.66;2394425;28;45625;-80
2022/02/25 02:14:00;;;;;;;;;3.75;2.75;;;;;7.29;54.42;102306.28;2395411;28;45344;-80
2022/02/25 02:15:11;;;;;;;;;0.50;0.50;;;;;7.26;54.31;102306.25;2398382;28;45467;-81
2022/02/25 02:16:22;;;;;;;;;1.75;0.00;;;;;7.24;54.48;102304.50;2394515;28;45253;-81
2022/02/25 02:17:32;;;;;;;;;2.25;2.00;;;;;7.27;54.36;102307.13;2394441;28;45380;-81
2022/02/25 02:18:43;;;;;;;;;6.00;2.75;;;;;7.23;54.92;102300.16;2394475;28;44616;-81
2022/02/25 02:19:53;;;;;;;;;1.50;1.50;;;;;7.25;54.27;102304.53;2393992;28;45258;-81
2022/02/25 02:21:04;;;;;;;;;3.75;1.75;;;;;7.24;54.52;102296.66;2394610;28;44689;-81
2022/02/25 02:22:14;;;;;;;;;5.50;2.00;;;;;7.27;54.36;102309.75;2394263;28;46372;-81
2022/02/25 02:23:25;;;;;;;;;1.50;1.00;;;;;7.22;54.69;102299.25;2394496;28;45191;-80
2022/02/25 02:24:35;;;;;;;;;2.50;2.50;;;;;7.25;54.55;102298.41;2399537;28;45463;-80
2022/02/25 02:25:45;;;;;;;;;1.50;1.50;;;;;7.25;54.62;102303.63;2394531;28;45233;-80
2022/02/25 02:26:56;;;;;;;;;2.00;1.00;;;;;7.23;54.55;102301.03;2394091;28;45246;-80
2022/02/25 02:28:19;;;;;;;;;3.25;1.25;;;;;7.23;55.05;102297.53;2394521;28;45189;-80
2022/02/25 02:29:29;;;;;;;;;3.75;1.00;;;;;7.20;54.81;102301.88;2395298;28;46396;-81
2022/02/25 02:30:39;;;;;;;;;1.50;1.00;;;;;7.20;54.44;102301.88;2394510;28;44671;-82
2022/02/25 02:31:50;;;;;;;;;3.50;1.00;;;;;7.20;54.60;102294.03;2393695;28;46467;-82
2022/02/25 02:33:01;;;;;;;;;2.00;1.00;;;;;7.19;54.62;102297.50;2394381;28;44667;-83
2022/02/25 02:34:14;;;;;;;;;1.25;1.25;;;;;7.17;54.86;102295.75;2395988;28;45455;-83
2022/02/25 02:35:25;;;;;;;;;1.25;1.25;;;;;7.16;54.44;102297.47;2395408;28;45240;-83
2022/02/25 02:36:35;;;;;;;;;0.00;0.00;;;;;7.14;54.66;102296.59;2394212;28;45370;-81
2022/02/25 02:37:45;;;;;;;;;1.00;1.00;;;;;7.13;54.59;102301.81;2394315;28;45251;-82
2022/02/25 02:38:56;;;;;;;;;2.00;1.00;;;;;7.09;54.65;102299.19;2394198;28;45316;-82
2022/02/25 02:40:07;;;;;;;;;2.00;1.00;;;;;7.07;54.61;102305.25;2394337;28;45215;-82
2022/02/25 02:41:18;;;;;;;;;2.25;2.25;;;;;7.05;54.66;102299.16;2394231;28;46518;-81
2022/02/25 02:42:28;;;;;;;;;4.25;2.75;;;;;7.03;55.04;102299.16;2394244;28;45295;-82
2022/02/25 02:43:39;;;;;;;;;5.50;4.00;;;;;7.00;54.54;102304.34;2393892;28;45482;-82
2022/02/25 02:44:49;;;;;;;;;5.00;2.00;;;;;6.98;55.12;102299.13;2394253;28;45218;-81
2022/02/25 02:46:00;;;;;;;;;1.75;1.75;;;;;6.97;55.13;102299.09;2394251;28;45446;-82
2022/02/25 02:47:10;;;;;;;;;2.75;1.00;;;;;6.95;55.44;102295.59;2394256;28;45254;-81
2022/02/25 02:48:21;;;;;;;;;5.25;2.00;;;;;6.96;55.12;102298.22;2394126;28;45324;-80
2022/02/25 02:49:31;;;;;;;;;1.75;0.25;;;;;6.96;55.20;102289.50;2394303;28;44686;-80
2022/02/25 02:50:43;;;;;;;;;1.50;0.25;;;;;6.95;55.02;102300.81;2394094;28;45310;-80
2022/02/25 02:51:53;;;;;;;;;2.50;1.75;;;;;6.94;55.51;102294.72;2400693;28;45183;-80
2022/02/25 02:53:04;;;;;;;;;3.25;1.00;;;;;6.89;55.43;102296.41;2398543;28;46193;-80
2022/02/25 02:54:14;;;;;;;;;1.50;1.50;;;;;6.90;55.34;102294.69;2394384;28;45167;-80
2022/02/25 02:55:25;;;;;;;;;1.00;0.00;;;;;6.90;54.90;102303.41;2393999;28;46087;-80
2022/02/25 02:56:35;;;;;;;;;1.75;1.75;;;;;6.89;55.58;102300.78;2394995;28;44782;-80
2022/02/25 02:57:46;;;;;;;;;2.00;2.00;;;;;6.90;55.66;102303.41;2393233;28;46017;-81
2022/02/25 02:58:56;;;;;;;;;2.25;1.00;;;;;6.90;55.66;102308.63;2393713;28;45266;-81
2022/02/25 03:00:08;;;;;;;;;3.50;1.00;;;;;6.93;55.51;102313.88;2394027;28;45423;-80
2022/02/25 03:01:18;;;;;;;;;3.50;1.50;;;;;6.87;55.35;102303.38;2394709;28;44652;-80
2022/02/25 03:02:28;;;;;;;;;0.75;0.75;;;;;6.89;55.35;102301.63;2403017;28;45373;-81
2022/02/25 03:03:39;;;;;;;;;2.50;2.00;;;;;6.84;55.48;102300.75;2394930;28;45407;-81
2022/02/25 03:04:49;;;;;;;;;3.25;1.00;;;;;6.85;55.51;102302.47;2393877;28;45451;-80
2022/02/25 03:05:59;;;;;;;;;1.25;1.25;;;;;6.83;55.52;102299.00;2393980;28;45408;-80
2022/02/25 03:07:10;;;;;;;;;1.50;1.50;;;;;6.84;55.66;102296.38;2393882;28;46421;-80
2022/02/25 03:08:20;;;;;;;;;1.50;0.50;;;;;6.86;56.08;102299.88;2393360;28;45261;-83
2022/02/25 03:09:31;;;;;;;;;4.25;3.25;;;;;6.88;55.93;102305.13;2393390;28;45309;-83
2022/02/25 03:10:43;;;;;;;;;3.75;0.75;;;;;6.88;56.17;102299.91;2393422;28;45295;-80
2022/02/25 03:11:54;;;;;;;;;2.50;1.00;;;;;6.89;55.89;102301.63;2395619;28;45435;-79
2022/02/25 03:13:05;;;;;;;;;4.50;2.00;;;;;6.88;56.20;102305.13;2393911;28;45210;-79
2022/02/25 03:14:16;;;;;;;;;3.75;2.00;;;;;6.89;56.13;102300.78;2394005;28;45338;-79
2022/02/25 03:15:26;;;;;;;;;1.75;1.75;;;;;6.90;56.32;102306.00;2394046;28;45214;-79
2022/02/25 03:16:37;;;;;;;;;2.25;1.00;;;;;6.91;55.81;102304.28;2393957;28;45714;-79
2022/02/25 03:17:47;;;;;;;;;4.75;1.50;;;;;6.89;55.60;102306.88;2393465;28;45176;-81
2022/02/25 03:18:58;;;;;;;;;2.00;2.00;;;;;6.86;55.61;102306.88;2386303;28;47133;-82
2022/02/25 03:20:10;;;;;;;;;3.00;2.00;;;;;6.88;55.83;102309.47;2398147;28;45270;-82
2022/02/25 03:21:20;;;;;;;;;3.00;2.50;;;;;6.89;55.71;102313.84;2393993;28;46087;-81
2022/02/25 03:22:31;;;;;;;;;2.00;2.00;;;;;6.85;55.62;102311.22;2393971;28;44798;-82
2022/02/25 03:23:41;;;;;;;;;2.00;2.00;;;;;6.85;55.92;102307.72;2393855;28;46440;-81
2022/02/25 03:24:56;;;;;;;;;3.25;1.00;;;;;6.82;55.95;102303.34;2393992;28;44738;-81
2022/02/25 03:26:10;;;;;;;;;5.50;2.00;;;;;6.84;56.11;102308.59;2393476;28;45275;-82
2022/02/25 03:27:21;;;;;;;;;1.75;1.75;;;;;6.82;55.98;102307.69;2396961;28;45338;-82
2022/02/25 03:28:31;;;;;;;;;1.25;1.00;;;;;6.82;55.67;102307.69;2393816;28;46070;-81
2022/02/25 03:29:41;;;;;;;;;3.25;2.00;;;;;6.81;56.29;102305.94;2394418;28;44621;-81
2022/02/25 03:30:52;;;;;;;;;4.25;1.75;;;;;6.79;56.11;102305.06;2400253;28;45322;-80
2022/02/25 03:32:02;;;;;;;;;3.75;2.00;;;;;6.77;56.14;102302.41;2394058;28;45325;-80
2022/02/25 03:33:12;;;;;;;;;3.00;2.00;;;;;6.78;56.52;102298.06;2393768;28;45412;-81
2022/02/25 03:34:23;;;;;;;;;2.25;1.75;;;;;6.77;56.00;102301.53;2393912;28;45255;-80
2022/02/25 03:35:35;;;;;;;;;1.50;1.50;;;;;6.77;56.43;102306.75;2393611;28;46609;-80
2022/02/25 03:36:45;;;;;;;;;3.00;2.00;;;;;6.74;56.38;102305.88;2394112;28;45210;-80
2022/02/25 03:37:56;;;;;;;;;1.25;1.00;;;;;6.70;56.29;102309.34;2393600;28;46235;-80
2022/02/25 03:39:06;;;;;;;;;5.50;3.00;;;;;6.74;56.65;102312.88;2398288;28;45244;-80
2022/02/25 03:40:17;;;;;;;;;2.50;1.00;;;;;6.75;56.28;102312.88;2393145;28;46245;-80
2022/02/25 03:41:28;;;;;;;;;2.25;0.75;;;;;6.75;56.46;102311.97;2392589;28;44777;-80
2022/02/25 03:42:38;;;;;;;;;2.50;2.00;;;;;6.73;56.27;102317.22;2393154;28;45456;-80
2022/02/25 03:43:49;;;;;;;;;1.00;1.00;;;;;6.71;56.40;102315.44;2393001;28;45273;-80
2022/02/25 03:44:59;;;;;;;;;1.50;1.50;;;;;6.69;56.14;102317.19;2393074;28;45405;-80
2022/02/25 03:46:10;;;;;;;;;5.00;1.00;;;;;6.68;56.59;102315.41;2393710;28;45325;-80
2022/02/25 03:47:20;;;;;;;;;3.50;3.00;;;;;6.67;56.22;102314.53;2393729;28;45372;-80
2022/02/25 03:48:30;;;;;;;;;2.25;2.00;;;;;6.68;56.62;102318.03;2397162;28;45156;-80
2022/02/25 03:49:41;;;;;;;;;3.50;1.75;;;;;6.67;56.63;102314.53;2393981;28;46302;-79
2022/02/25 03:50:51;;;;;;;;;3.75;1.00;;;;;6.67;56.68;102313.69;2393730;28;45297;-80
2022/02/25 03:52:02;;;;;;;;;1.00;1.00;;;;;6.64;56.54;102315.38;2393663;28;46267;-80
2022/02/25 03:53:12;;;;;;;;;6.00;2.25;;;;;6.64;56.59;102314.53;2393112;28;45400;-80
2022/02/25 03:54:22;;;;;;;;;1.75;1.00;;;;;6.63;56.88;102321.47;2386109;28;47351;-80
2022/02/25 03:55:34;;;;;;;;;1.00;1.00;;;;;6.63;56.77;102315.38;2393031;28;45273;-80
2022/02/25 03:56:45;;;;;;;;;2.50;2.00;;;;;6.64;56.96;102323.22;2401750;28;46641;-80
2022/02/25 03:57:55;;;;;;;;;3.50;1.00;;;;;6.66;56.57;102328.47;2393846;28;45233;-80
2022/02/25 03:59:06;;;;;;;;;2.75;1.50;;;;;6.65;56.80;102324.09;2393287;28;45364;-80
2022/02/25 04:00:16;;;;;;;;;3.50;1.75;;;;;6.64;56.60;102322.38;2393709;28;45272;-80
2022/02/25 04:01:26;;;;;;;;;1.50;1.50;;;;;6.60;56.85;102321.44;2392643;28;47934;-80
2022/02/25 04:02:37;;;;;;;;;1.00;1.00;;;;;6.65;57.02;102334.53;2393351;28;44549;-80
2022/02/25 04:03:47;;;;;;;;;2.50;2.00;;;;;6.66;57.25;102336.31;2393688;28;46399;-80
2022/02/25 04:04:58;;;;;;;;;2.75;1.25;;;;;6.66;56.77;102338.03;2401049;28;46815;-81
2022/02/25 04:06:08;;;;;;;;;1.75;1.00;;;;;6.66;56.82;102341.53;2397124;28;45335;-80
2022/02/25 04:07:18;;;;;;;;;3.00;1.50;;;;;6.65;57.12;102339.78;2393760;28;45266;-80
2022/02/25 04:08:29;;;;;;;;;1.00;1.00;;;;;6.67;57.15;102348.50;2393268;28;45381;-80
2022/02/25 04:09:40;;;;;;;;;2.00;1.00;;;;;6.67;56.93;102347.66;2402401;28;45331;-80
2022/02/25 04:10:51;;;;;;;;;5.00;2.00;;;;;6.67;56.94;102342.41;2399248;28;45590;-79
2022/02/25 04:12:02;;;;;;;;;2.00;2.00;;;;;6.67;56.87;102353.72;2393747;28;45446;-79
2022/02/25 04:13:12;;;;;;;;;4.00;2.00;;;;;6.64;56.69;102343.25;2393372;28;46686;-79
2022/02/25 04:14:23;;;;;;;;;5.00;2.75;;;;;6.64;57.09;102346.72;2396196;28;44789;-80
2022/02/25 04:15:33;;;;;;;;;6.00;1.75;;;;;6.63;57.23;102346.72;2397105;28;45533;-80
2022/02/25 04:16:45;;;;;;;;;1.00;1.00;;;;;6.62;57.33;102353.69;2402330;28;44647;-80
2022/02/25 04:17:56;;;;;;;;;3.00;1.00;;;;;6.63;57.27;102351.94;2399657;28;46504;-78
2022/02/25 04:19:08;;;;;;;;;2.00;2.00;;;;;6.63;57.23;102351.94;2399063;28;45456;-79
2022/02/25 04:20:18;;;;;;;;;5.25;0.75;;;;;6.61;56.81;102351.06;2393039;28;45360;-79
2022/02/25 04:21:29;;;;;;;;;2.75;2.00;;;;;6.59;57.21;102351.03;2395810;28;45588;-79
2022/02/25 04:22:40;;;;;;;;;1.00;1.00;;;;;6.60;57.25;102355.41;2398254;28;45321;-81
2022/02/25 04:23:50;;;;;;;;;1.00;1.00;;;;;6.60;56.92;102352.78;2392757;28;45241;-81
2022/02/25 04:25:00;;;;;;;;;4.25;2.00;;;;;6.60;57.25;102360.63;2392954;28;46432;-80
2022/02/25 04:26:11;;;;;;;;;6.00;0.25;;;;;6.62;57.41;102355.41;2393309;28;44762;-79
2022/02/25 04:27:21;;;;;;;;;3.50;2.00;;;;;6.62;57.41;102355.41;2393407;28;45579;-79
2022/02/25 04:28:31;;;;;;;;;4.00;1.50;;;;;6.61;57.19;102370.25;2393616;28;45322;-78
2022/02/25 04:29:42;;;;;;;;;2.00;1.00;;;;;6.62;57.41;102365.88;2393372;28;45338;-79
2022/02/25 04:30:53;;;;;;;;;1.00;1.00;;;;;6.62;57.05;102360.63;2393233;28;45218;-79
2022/02/25 04:32:04;;;;;;;;;2.00;1.00;;;;;6.62;57.20;102371.09;2399245;28;46735;-79
2022/02/25 04:33:14;;;;;;;;;2.00;1.25;;;;;6.61;57.55;102370.25;2392899;28;45294;-78
2022/02/25 04:34:25;;;;;;;;;2.00;1.75;;;;;6.60;57.26;102370.19;2392882;28;46558;-78
2022/02/25 04:35:37;;;;;;;;;1.00;1.00;;;;;6.62;57.32;102373.69;2393502;28;45203;-78
2022/02/25 04:36:47;;;;;;;;;1.25;0.75;;;;;6.62;57.40;102376.31;2392758;28;47201;-78
2022/02/25 04:37:58;;;;;;;;;6.00;2.00;;;;;6.63;57.21;102375.47;2393046;28;45202;-78
2022/02/25 04:39:08;;;;;;;;;1.00;1.00;;;;;6.62;57.59;102384.16;2393315;28;46076;-79
2022/02/25 04:40:18;;;;;;;;;2.50;1.00;;;;;6.63;57.21;102375.47;2392762;28;44636;-78
2022/02/25 04:41:29;;;;;;;;;3.50;3.00;;;;;6.60;57.59;102375.44;2394512;28;45448;-79
2022/02/25 04:42:39;;;;;;;;;1.25;0.50;;;;;6.60;57.42;102375.44;2393612;28;45189;-79
2022/02/25 04:43:49;;;;;;;;;4.00;2.00;;;;;6.60;57.57;102378.03;2392857;28;46328;-78
2022/02/25 04:45:00;;;;;;;;;3.00;2.00;;;;;6.61;57.92;102385.91;2393284;28;45335;-79
2022/02/25 04:46:18;;;;;;;;;2.25;1.50;;;;;6.61;57.50;102385.03;2393319;28;45478;-79
2022/02/25 04:47:29;;;;;;;;;3.50;1.25;;;;;6.60;57.66;102391.09;2393561;28;44764;-79
2022/02/25 04:48:39;;;;;;;;;3.25;2.00;;;;;6.59;57.46;102390.22;2394019;28;45440;-79
2022/02/25 04:49:49;;;;;;;;;2.00;2.00;;;;;6.61;57.63;102390.25;2394996;28;45289;-78
2022/02/25 04:51:00;;;;;;;;;1.50;1.50;;;;;6.59;57.89;102391.97;2399052;28;46475;-78
2022/02/25 04:52:12;;;;;;;;;2.75;1.00;;;;;6.59;57.92;102398.06;2393572;28;45318;-82
2022/02/25 04:53:22;;;;;;;;;5.00;2.00;;;;;6.59;58.04;102389.38;2393365;28;48241;-82
2022/02/25 04:54:33;;;;;;;;;0.75;0.00;;;;;6.60;57.75;102399.81;2395160;28;45207;-82
2022/02/25 04:55:46;;;;;;;;;2.00;1.00;;;;;6.57;57.52;102388.47;2399186;28;45319;-81
2022/02/25 04:56:56;;;;;;;;;1.50;1.50;;;;;6.58;57.65;102400.66;2392681;28;45278;-82
2022/02/25 04:58:07;;;;;;;;;1.50;1.50;;;;;6.54;57.71;102389.31;2392801;28;45672;-82
2022/02/25 04:59:18;;;;;;;;;1.00;1.00;;;;;6.54;58.09;102384.09;2393405;28;44802;-82
2022/02/25 05:00:28;;;;;;;;;1.25;1.00;;;;;6.57;58.23;102388.47;2394888;28;45581;-83
2022/02/25 05:01:38;;;;;;;;;5.50;1.00;;;;;6.55;57.65;102390.19;2393321;28;44690;-83
2022/02/25 05:02:49;;;;;;;;;4.50;1.50;;;;;6.53;58.04;102388.44;2393019;28;46386;-82
2022/02/25 05:03:59;;;;;;;;;2.25;2.25;;;;;6.53;58.25;102387.56;2392725;28;44779;-85
2022/02/25 05:05:10;;;;;;;;;2.25;2.25;;;;;6.53;57.83;102390.16;2394779;28;47187;-85
2022/02/25 05:06:20;;;;;;;;;2.25;2.25;;;;;6.49;57.90;102396.22;2399626;28;45216;-85
2022/02/25 05:07:31;;;;;;;;;1.25;1.00;;;;;6.48;58.26;102395.34;2393236;28;45491;-82
2022/02/25 05:08:41;;;;;;;;;2.50;1.00;;;;;6.47;58.29;102396.19;2392676;28;45303;-84
2022/02/25 05:09:52;;;;;;;;;4.00;2.00;;;;;6.46;58.09;102394.47;2393954;28;45580;-84
2022/02/25 05:11:02;;;;;;;;;2.00;1.00;;;;;6.46;58.03;102402.28;2395394;28;44752;-81
2022/02/25 05:12:13;;;;;;;;;2.00;1.00;;;;;6.45;58.00;102397.91;2393218;28;45384;-81
2022/02/25 05:13:23;;;;;;;;;2.00;1.50;;;;;6.46;58.30;102406.63;2393151;28;45151;-81
2022/02/25 05:20:30;;;;;;;;;2.00;2.00;;;;;6.45;58.23;102407.50;2399283;28;45447;-82
2022/02/25 05:21:40;;;;;;;;;4.00;1.75;;;;;6.42;58.29;102403.09;2395013;28;45432;-82
2022/02/25 05:22:56;;;;;;;;;1.00;1.00;;;;;6.41;58.11;102406.59;2393085;28;46252;-80
2022/02/25 05:24:07;;;;;;;;;3.75;2.00;;;;;6.39;58.23;102410.94;2393224;28;45219;-79
2022/02/25 05:25:18;;;;;;;;;2.00;1.00;;;;;6.41;58.07;102412.69;2393239;28;46100;-79
2022/02/25 05:26:29;;;;;;;;;7.00;2.00;;;;;6.43;58.58;102417.03;2392896;28;45275;-79
2022/02/25 05:27:39;;;;;;;;;2.25;0.75;;;;;6.41;58.39;102420.53;2392860;28;46157;-80
2022/02/25 05:28:49;;;;;;;;;1.00;1.00;;;;;6.41;58.52;102417.03;2393218;28;44651;-80
2022/02/25 05:30:00;;;;;;;;;2.00;2.00;;;;;6.40;58.59;102417.88;2392746;28;45750;-82
2022/02/25 05:31:10;;;;;;;;;3.00;1.75;;;;;6.37;58.57;102408.28;2399816;28;45261;-82
2022/02/25 05:32:21;;;;;;;;;2.75;1.00;;;;;6.39;58.31;102418.75;2393992;28;45408;-81
2022/02/25 05:33:31;;;;;;;;;1.25;0.00;;;;;6.43;58.65;102420.53;2393584;28;45279;-86
2022/02/25 05:34:42;;;;;;;;;1.75;1.00;;;;;6.42;58.54;102421.38;2394435;28;45338;-83
2022/02/25 05:35:52;;;;;;;;;1.00;1.00;;;;;6.41;58.40;102422.25;2394838;28;44608;-82
2022/02/25 05:37:03;;;;;;;;;4.00;1.75;;;;;6.39;58.46;102423.97;2394541;28;46379;-82
2022/02/25 05:38:13;;;;;;;;;1.75;1.75;;;;;6.40;58.49;102420.50;2394830;28;44612;-80